Terminal Aerodrome Forecast
Issued by NWS

Home | Current Version | Previous Version | Graphics & Text | Print | Product List | Glossary On
Versions: 1 2 3 4 5 6 7 8 9 10 11 12 13 14 15 16
790
FTUS43 KBIS 151006 AAB
TAFJMS
TAF AMD
KJMS 151006Z 1510/1606 33018G23KT 3SM BLSN OVC009
     FM151300 33016G22KT 4SM BLSN SCT010 BKN020
     FM151600 33019G26KT 3SM BLSN SCT015 BKN025
     FM152200 34015KT P6SM SCT035
     FM160200 33011KT P6SM FEW250=

USA.gov is the U.S. government's official web portal to all federal, state and local government web resources and services.